sensor_id;sensor_type;location;lat;lon;timestamp;temperature;humidity
26081;DHT22;13991;51.174;4.438;2024-02-21T00:01:01;11.60;99.90
26081;DHT22;13991;51.174;4.438;2024-02-21T00:03:27;11.60;99.90
26081;DHT22;13991;51.174;4.438;2024-02-21T00:05:53;11.60;99.90
26081;DHT22;13991;51.174;4.438;2024-02-21T00:08:19;11.50;99.90
26081;DHT22;13991;51.174;4.438;2024-02-21T00:10:45;11.50;99.90
26081;DHT22;13991;51.174;4.438;2024-02-21T00:13:11;11.40;99.90
26081;DHT22;13991;51.174;4.438;2024-02-21T00:15:37;11.40;99.90
26081;DHT22;13991;51.174;4.438;2024-02-21T00:18:03;11.30;99.90
26081;DHT22;13991;51.174;4.438;2024-02-21T00:20:28;11.20;99.90
26081;DHT22;13991;51.174;4.438;2024-02-21T00:22:55;11.30;99.90
26081;DHT22;13991;51.174;4.438;2024-02-21T00:25:21;11.30;99.90
26081;DHT22;13991;51.174;4.438;2024-02-21T00:27:46;11.30;99.90
26081;DHT22;13991;51.174;4.438;2024-02-21T00:30:12;11.30;99.90
26081;DHT22;13991;51.174;4.438;2024-02-21T00:32:38;11.30;99.90
26081;DHT22;13991;51.174;4.438;2024-02-21T00:35:04;11.40;99.90
26081;DHT22;13991;51.174;4.438;2024-02-21T00:37:31;11.30;99.90
26081;DHT22;13991;51.174;4.438;2024-02-21T00:39:57;11.30;99.90
26081;DHT22;13991;51.174;4.438;2024-02-21T00:42:23;11.40;99.90
26081;DHT22;13991;51.174;4.438;2024-02-21T00:44:50;11.40;99.90
26081;DHT22;13991;51.174;4.438;2024-02-21T00:47:16;11.30;99.90
26081;DHT22;13991;51.174;4.438;2024-02-21T00:49:41;11.30;99.90
26081;DHT22;13991;51.174;4.438;2024-02-21T00:52:07;11.20;99.90
26081;DHT22;13991;51.174;4.438;2024-02-21T00:54:33;11.10;99.90
26081;DHT22;13991;51.174;4.438;2024-02-21T00:56:59;11.10;99.90
26081;DHT22;13991;51.174;4.438;2024-02-21T00:59:24;11.20;99.90
26081;DHT22;13991;51.174;4.438;2024-02-21T01:01:51;11.10;99.90
26081;DHT22;13991;51.174;4.438;2024-02-21T01:04:17;11.20;99.90
26081;DHT22;13991;51.174;4.438;2024-02-21T01:06:42;11.20;99.90
26081;DHT22;13991;51.174;4.438;2024-02-21T01:09:10;11.10;99.90
26081;DHT22;13991;51.174;4.438;2024-02-21T01:11:36;11.10;99.90
26081;DHT22;13991;51.174;4.438;2024-02-21T01:14:02;11.20;99.90
26081;DHT22;13991;51.174;4.438;2024-02-21T01:16:28;11.30;99.90
26081;DHT22;13991;51.174;4.438;2024-02-21T01:18:54;11.30;99.90
26081;DHT22;13991;51.174;4.438;2024-02-21T01:21:21;11.20;99.90
26081;DHT22;13991;51.174;4.438;2024-02-21T01:23:47;11.10;99.90
26081;DHT22;13991;51.174;4.438;2024-02-21T01:26:13;11.10;99.90
26081;DHT22;13991;51.174;4.438;2024-02-21T01:28:41;11.00;99.90
26081;DHT22;13991;51.174;4.438;2024-02-21T01:31:07;11.10;99.90
26081;DHT22;13991;51.174;4.438;2024-02-21T01:33:33;11.10;99.90
26081;DHT22;13991;51.174;4.438;2024-02-21T01:36:04;11.10;99.90
26081;DHT22;13991;51.174;4.438;2024-02-21T01:38:33;11.30;99.90
26081;DHT22;13991;51.174;4.438;2024-02-21T01:40:59;11.10;99.90
26081;DHT22;13991;51.174;4.438;2024-02-21T01:43:26;11.00;99.90
26081;DHT22;13991;51.174;4.438;2024-02-21T01:45:55;11.00;99.90
26081;DHT22;13991;51.174;4.438;2024-02-21T01:48:22;11.00;99.90
26081;DHT22;13991;51.174;4.438;2024-02-21T01:50:50;11.00;99.90
26081;DHT22;13991;51.174;4.438;2024-02-21T01:53:21;11.00;99.90
26081;DHT22;13991;51.174;4.438;2024-02-21T01:55:48;11.00;99.90
26081;DHT22;13991;51.174;4.438;2024-02-21T01:58:15;11.00;99.90
26081;DHT22;13991;51.174;4.438;2024-02-21T02:00:46;11.00;99.90
26081;DHT22;13991;51.174;4.438;2024-02-21T02:03:12;11.00;99.90
26081;DHT22;13991;51.174;4.438;2024-02-21T02:05:49;11.10;99.90
26081;DHT22;13991;51.174;4.438;2024-02-21T02:08:17;11.10;99.90
26081;DHT22;13991;51.174;4.438;2024-02-21T02:10:43;11.10;99.90
26081;DHT22;13991;51.174;4.438;2024-02-21T02:13:09;11.10;99.90
26081;DHT22;13991;51.174;4.438;2024-02-21T02:15:43;11.10;99.90
26081;DHT22;13991;51.174;4.438;2024-02-21T02:18:10;11.20;99.90
26081;DHT22;13991;51.174;4.438;2024-02-21T02:20:36;11.10;99.90
26081;DHT22;13991;51.174;4.438;2024-02-21T02:23:31;11.00;99.90
26081;DHT22;13991;51.174;4.438;2024-02-21T02:25:57;10.90;99.90
26081;DHT22;13991;51.174;4.438;2024-02-21T02:28:23;11.10;99.90
26081;DHT22;13991;51.174;4.438;2024-02-21T02:30:49;11.00;99.90
26081;DHT22;13991;51.174;4.438;2024-02-21T02:33:15;11.10;99.90
26081;DHT22;13991;51.174;4.438;2024-02-21T02:35:43;11.10;99.90
26081;DHT22;13991;51.174;4.438;2024-02-21T02:38:08;11.20;99.90
26081;DHT22;13991;51.174;4.438;2024-02-21T02:40:36;11.10;99.90
26081;DHT22;13991;51.174;4.438;2024-02-21T02:43:02;11.10;99.90
26081;DHT22;13991;51.174;4.438;2024-02-21T02:45:28;10.90;99.90
26081;DHT22;13991;51.174;4.438;2024-02-21T02:47:54;10.90;99.90
26081;DHT22;13991;51.174;4.438;2024-02-21T02:50:22;10.90;99.90
26081;DHT22;13991;51.174;4.438;2024-02-21T02:52:48;10.80;99.90
26081;DHT22;13991;51.174;4.438;2024-02-21T02:55:14;10.90;99.90
26081;DHT22;13991;51.174;4.438;2024-02-21T02:57:40;10.80;99.90
26081;DHT22;13991;51.174;4.438;2024-02-21T03:00:08;10.80;99.90
26081;DHT22;13991;51.174;4.438;2024-02-21T03:02:35;10.90;99.90
26081;DHT22;13991;51.174;4.438;2024-02-21T03:05:01;10.80;99.90
26081;DHT22;13991;51.174;4.438;2024-02-21T03:07:36;10.80;99.90
26081;DHT22;13991;51.174;4.438;2024-02-21T03:10:02;10.80;99.90
26081;DHT22;13991;51.174;4.438;2024-02-21T03:12:28;10.90;99.90
26081;DHT22;13991;51.174;4.438;2024-02-21T03:14:54;10.90;99.90
26081;DHT22;13991;51.174;4.438;2024-02-21T03:17:21;10.80;99.90
26081;DHT22;13991;51.174;4.438;2024-02-21T03:19:47;10.80;99.90
26081;DHT22;13991;51.174;4.438;2024-02-21T03:22:14;10.90;99.90
26081;DHT22;13991;51.174;4.438;2024-02-21T03:24:39;10.90;99.90
26081;DHT22;13991;51.174;4.438;2024-02-21T03:27:06;10.90;99.90
26081;DHT22;13991;51.174;4.438;2024-02-21T03:29:32;10.90;99.90
26081;DHT22;13991;51.174;4.438;2024-02-21T03:31:57;10.90;99.90
26081;DHT22;13991;51.174;4.438;2024-02-21T03:34:23;11.00;99.90
26081;DHT22;13991;51.174;4.438;2024-02-21T03:36:49;11.00;99.90
26081;DHT22;13991;51.174;4.438;2024-02-21T03:39:15;11.10;99.90
26081;DHT22;13991;51.174;4.438;2024-02-21T03:41:40;11.10;99.90
26081;DHT22;13991;51.174;4.438;2024-02-21T03:44:06;11.00;99.90
26081;DHT22;13991;51.174;4.438;2024-02-21T03:46:32;11.10;99.90
26081;DHT22;13991;51.174;4.438;2024-02-21T03:48:59;11.20;99.90
26081;DHT22;13991;51.174;4.438;2024-02-21T03:51:26;11.20;99.90
26081;DHT22;13991;51.174;4.438;2024-02-21T03:53:51;11.10;99.90
26081;DHT22;13991;51.174;4.438;2024-02-21T03:56:18;11.10;99.90
26081;DHT22;13991;51.174;4.438;2024-02-21T03:58:44;11.10;99.90
26081;DHT22;13991;51.174;4.438;2024-02-21T04:01:11;11.10;99.90
26081;DHT22;13991;51.174;4.438;2024-02-21T04:03:37;11.20;99.90
26081;DHT22;13991;51.174;4.438;2024-02-21T04:06:03;11.10;99.90
26081;DHT22;13991;51.174;4.438;2024-02-21T04:08:29;11.10;99.90
26081;DHT22;13991;51.174;4.438;2024-02-21T04:10:55;11.10;99.90
26081;DHT22;13991;51.174;4.438;2024-02-21T04:13:21;11.10;99.90
26081;DHT22;13991;51.174;4.438;2024-02-21T04:15:48;11.20;99.90
26081;DHT22;13991;51.174;4.438;2024-02-21T04:18:15;11.20;99.90
26081;DHT22;13991;51.174;4.438;2024-02-21T04:20:42;11.10;99.90
26081;DHT22;13991;51.174;4.438;2024-02-21T04:23:08;11.10;99.90
26081;DHT22;13991;51.174;4.438;2024-02-21T04:25:33;11.00;99.90
26081;DHT22;13991;51.174;4.438;2024-02-21T04:27:59;11.10;99.90
26081;DHT22;13991;51.174;4.438;2024-02-21T04:30:26;11.10;99.90
26081;DHT22;13991;51.174;4.438;2024-02-21T04:32:51;11.20;99.90
26081;DHT22;13991;51.174;4.438;2024-02-21T04:35:18;11.20;99.90
26081;DHT22;13991;51.174;4.438;2024-02-21T04:37:44;11.10;99.90
26081;DHT22;13991;51.174;4.438;2024-02-21T04:40:10;11.10;99.90
26081;DHT22;13991;51.174;4.438;2024-02-21T04:42:37;11.20;99.90
26081;DHT22;13991;51.174;4.438;2024-02-21T04:45:03;11.30;99.90
26081;DHT22;13991;51.174;4.438;2024-02-21T04:47:29;11.30;99.90
26081;DHT22;13991;51.174;4.438;2024-02-21T04:49:55;11.20;99.90
26081;DHT22;13991;51.174;4.438;2024-02-21T04:52:21;11.10;99.90
26081;DHT22;13991;51.174;4.438;2024-02-21T04:54:47;11.20;99.90
26081;DHT22;13991;51.174;4.438;2024-02-21T04:57:12;11.20;99.90
26081;DHT22;13991;51.174;4.438;2024-02-21T04:59:45;11.10;99.90
26081;DHT22;13991;51.174;4.438;2024-02-21T05:02:13;11.10;99.90
26081;DHT22;13991;51.174;4.438;2024-02-21T05:04:39;11.00;99.90
26081;DHT22;13991;51.174;4.438;2024-02-21T05:07:07;11.00;99.90
26081;DHT22;13991;51.174;4.438;2024-02-21T05:09:33;11.20;99.90
26081;DHT22;13991;51.174;4.438;2024-02-21T05:11:59;11.10;99.90
26081;DHT22;13991;51.174;4.438;2024-02-21T05:14:28;11.00;99.90
26081;DHT22;13991;51.174;4.438;2024-02-21T05:16:53;10.90;99.90
26081;DHT22;13991;51.174;4.438;2024-02-21T05:19:19;10.80;99.90
26081;DHT22;13991;51.174;4.438;2024-02-21T05:21:45;10.70;99.90
26081;DHT22;13991;51.174;4.438;2024-02-21T05:24:11;10.80;99.90
26081;DHT22;13991;51.174;4.438;2024-02-21T05:26:37;10.70;99.90
26081;DHT22;13991;51.174;4.438;2024-02-21T05:29:03;10.60;99.90
26081;DHT22;13991;51.174;4.438;2024-02-21T05:34:17;10.80;99.90
26081;DHT22;13991;51.174;4.438;2024-02-21T05:36:44;10.80;99.90
26081;DHT22;13991;51.174;4.438;2024-02-21T05:39:10;10.80;99.90
26081;DHT22;13991;51.174;4.438;2024-02-21T05:41:37;10.60;99.90
26081;DHT22;13991;51.174;4.438;2024-02-21T05:44:04;10.40;99.90
26081;DHT22;13991;51.174;4.438;2024-02-21T05:46:31;10.60;99.90
26081;DHT22;13991;51.174;4.438;2024-02-21T05:48:57;10.60;99.90
26081;DHT22;13991;51.174;4.438;2024-02-21T05:51:23;10.70;99.90
26081;DHT22;13991;51.174;4.438;2024-02-21T05:53:49;10.70;99.90
26081;DHT22;13991;51.174;4.438;2024-02-21T05:56:15;10.80;99.90
26081;DHT22;13991;51.174;4.438;2024-02-21T05:58:42;10.80;99.90
26081;DHT22;13991;51.174;4.438;2024-02-21T06:01:08;10.70;99.90
26081;DHT22;13991;51.174;4.438;2024-02-21T06:03:34;10.70;99.90
26081;DHT22;13991;51.174;4.438;2024-02-21T06:06:01;10.80;99.90
26081;DHT22;13991;51.174;4.438;2024-02-21T06:08:27;10.70;99.90
26081;DHT22;13991;51.174;4.438;2024-02-21T06:10:53;10.60;99.90
26081;DHT22;13991;51.174;4.438;2024-02-21T06:13:26;10.60;99.90
26081;DHT22;13991;51.174;4.438;2024-02-21T06:15:53;10.50;99.90
26081;DHT22;13991;51.174;4.438;2024-02-21T06:18:19;10.50;99.90
26081;DHT22;13991;51.174;4.438;2024-02-21T06:20:45;10.50;99.90
26081;DHT22;13991;51.174;4.438;2024-02-21T06:23:12;10.50;99.90
26081;DHT22;13991;51.174;4.438;2024-02-21T06:25:38;10.60;99.90
26081;DHT22;13991;51.174;4.438;2024-02-21T06:28:05;10.60;99.90
26081;DHT22;13991;51.174;4.438;2024-02-21T06:30:31;10.70;99.90
26081;DHT22;13991;51.174;4.438;2024-02-21T06:32:57;10.70;99.90
26081;DHT22;13991;51.174;4.438;2024-02-21T06:35:23;10.60;99.90
26081;DHT22;13991;51.174;4.438;2024-02-21T06:37:54;10.60;99.90
26081;DHT22;13991;51.174;4.438;2024-02-21T06:40:23;10.60;99.90
26081;DHT22;13991;51.174;4.438;2024-02-21T06:42:50;10.70;99.90
26081;DHT22;13991;51.174;4.438;2024-02-21T06:45:16;10.60;99.90
26081;DHT22;13991;51.174;4.438;2024-02-21T06:47:42;10.70;99.90
26081;DHT22;13991;51.174;4.438;2024-02-21T06:50:09;10.70;99.90
26081;DHT22;13991;51.174;4.438;2024-02-21T06:52:39;10.70;99.90
26081;DHT22;13991;51.174;4.438;2024-02-21T06:55:08;10.80;99.90
26081;DHT22;13991;51.174;4.438;2024-02-21T06:57:36;10.80;99.90
26081;DHT22;13991;51.174;4.438;2024-02-21T07:00:02;10.80;99.90
26081;DHT22;13991;51.174;4.438;2024-02-21T07:02:28;10.80;99.90
26081;DHT22;13991;51.174;4.438;2024-02-21T07:04:54;10.80;99.90
26081;DHT22;13991;51.174;4.438;2024-02-21T07:07:21;10.70;99.90
26081;DHT22;13991;51.174;4.438;2024-02-21T07:09:47;10.70;99.90
26081;DHT22;13991;51.174;4.438;2024-02-21T07:12:15;10.70;99.90
26081;DHT22;13991;51.174;4.438;2024-02-21T07:14:41;10.70;99.90
26081;DHT22;13991;51.174;4.438;2024-02-21T07:17:08;10.70;99.90
26081;DHT22;13991;51.174;4.438;2024-02-21T07:19:33;10.80;99.90
26081;DHT22;13991;51.174;4.438;2024-02-21T07:22:00;10.90;99.90
26081;DHT22;13991;51.174;4.438;2024-02-21T07:24:27;10.90;99.90
26081;DHT22;13991;51.174;4.438;2024-02-21T07:26:53;10.90;99.90
26081;DHT22;13991;51.174;4.438;2024-02-21T07:29:19;10.90;99.90
26081;DHT22;13991;51.174;4.438;2024-02-21T07:31:45;10.90;99.90
26081;DHT22;13991;51.174;4.438;2024-02-21T07:34:11;10.90;99.90
26081;DHT22;13991;51.174;4.438;2024-02-21T07:36:36;10.80;99.90
26081;DHT22;13991;51.174;4.438;2024-02-21T07:39:05;10.90;99.90
26081;DHT22;13991;51.174;4.438;2024-02-21T07:41:31;10.90;99.90
26081;DHT22;13991;51.174;4.438;2024-02-21T07:43:59;11.00;99.90
26081;DHT22;13991;51.174;4.438;2024-02-21T07:46:25;11.00;99.90
26081;DHT22;13991;51.174;4.438;2024-02-21T07:48:50;11.00;99.90
26081;DHT22;13991;51.174;4.438;2024-02-21T07:51:16;11.00;99.90
26081;DHT22;13991;51.174;4.438;2024-02-21T07:53:44;11.00;99.90
26081;DHT22;13991;51.174;4.438;2024-02-21T07:56:11;11.00;99.90
26081;DHT22;13991;51.174;4.438;2024-02-21T07:58:36;11.00;99.90
26081;DHT22;13991;51.174;4.438;2024-02-21T08:01:02;11.00;99.90
26081;DHT22;13991;51.174;4.438;2024-02-21T08:03:28;10.90;99.90
26081;DHT22;13991;51.174;4.438;2024-02-21T08:05:54;10.90;99.90
26081;DHT22;13991;51.174;4.438;2024-02-21T08:08:20;10.90;99.90
26081;DHT22;13991;51.174;4.438;2024-02-21T08:10:48;10.80;99.90
26081;DHT22;13991;51.174;4.438;2024-02-21T08:13:14;10.80;99.90
26081;DHT22;13991;51.174;4.438;2024-02-21T08:15:40;10.90;99.90
26081;DHT22;13991;51.174;4.438;2024-02-21T08:18:07;10.90;99.90
26081;DHT22;13991;51.174;4.438;2024-02-21T08:20:33;10.90;99.90
26081;DHT22;13991;51.174;4.438;2024-02-21T08:22:59;10.90;99.90
26081;DHT22;13991;51.174;4.438;2024-02-21T08:25:24;10.80;99.90
26081;DHT22;13991;51.174;4.438;2024-02-21T08:27:50;10.80;99.90
26081;DHT22;13991;51.174;4.438;2024-02-21T08:30:17;10.90;99.90
26081;DHT22;13991;51.174;4.438;2024-02-21T08:32:43;10.80;99.90
26081;DHT22;13991;51.174;4.438;2024-02-21T08:35:09;10.90;99.90
26081;DHT22;13991;51.174;4.438;2024-02-21T08:37:34;10.90;99.90
26081;DHT22;13991;51.174;4.438;2024-02-21T08:40:00;10.80;99.90
26081;DHT22;13991;51.174;4.438;2024-02-21T08:42:36;10.80;99.90
26081;DHT22;13991;51.174;4.438;2024-02-21T08:45:04;10.90;99.90
26081;DHT22;13991;51.174;4.438;2024-02-21T08:47:30;10.90;99.90
26081;DHT22;13991;51.174;4.438;2024-02-21T08:49:55;11.00;99.90
26081;DHT22;13991;51.174;4.438;2024-02-21T08:52:21;11.00;99.90
26081;DHT22;13991;51.174;4.438;2024-02-21T08:54:47;11.00;99.90
26081;DHT22;13991;51.174;4.438;2024-02-21T08:57:12;10.90;99.90
26081;DHT22;13991;51.174;4.438;2024-02-21T08:59:39;11.00;99.90
26081;DHT22;13991;51.174;4.438;2024-02-21T09:02:06;11.00;99.90
26081;DHT22;13991;51.174;4.438;2024-02-21T09:04:34;10.90;99.90
26081;DHT22;13991;51.174;4.438;2024-02-21T09:07:00;11.00;99.90
26081;DHT22;13991;51.174;4.438;2024-02-21T09:09:26;11.10;99.90
26081;DHT22;13991;51.174;4.438;2024-02-21T09:11:54;11.20;99.90
26081;DHT22;13991;51.174;4.438;2024-02-21T09:14:19;11.40;99.90
26081;DHT22;13991;51.174;4.438;2024-02-21T09:16:45;11.40;99.90
26081;DHT22;13991;51.174;4.438;2024-02-21T09:19:11;11.30;99.90
26081;DHT22;13991;51.174;4.438;2024-02-21T09:21:39;11.40;99.90
26081;DHT22;13991;51.174;4.438;2024-02-21T09:24:06;11.40;99.90
26081;DHT22;13991;51.174;4.438;2024-02-21T09:26:32;11.40;99.90
26081;DHT22;13991;51.174;4.438;2024-02-21T09:28:57;11.50;99.90
26081;DHT22;13991;51.174;4.438;2024-02-21T09:31:23;11.50;99.90
26081;DHT22;13991;51.174;4.438;2024-02-21T09:33:49;11.40;99.90
26081;DHT22;13991;51.174;4.438;2024-02-21T09:36:15;11.50;99.90
26081;DHT22;13991;51.174;4.438;2024-02-21T09:38:40;11.50;99.90
26081;DHT22;13991;51.174;4.438;2024-02-21T09:41:16;11.60;99.90
26081;DHT22;13991;51.174;4.438;2024-02-21T09:43:45;11.70;99.90
26081;DHT22;13991;51.174;4.438;2024-02-21T09:46:18;11.70;99.90
26081;DHT22;13991;51.174;4.438;2024-02-21T09:51:22;11.80;99.90
26081;DHT22;13991;51.174;4.438;2024-02-21T09:53:49;11.70;99.90
26081;DHT22;13991;51.174;4.438;2024-02-21T09:56:16;11.60;99.90
26081;DHT22;13991;51.174;4.438;2024-02-21T09:58:42;11.70;99.90
26081;DHT22;13991;51.174;4.438;2024-02-21T10:01:08;11.70;99.90
26081;DHT22;13991;51.174;4.438;2024-02-21T10:03:34;11.80;99.90
26081;DHT22;13991;51.174;4.438;2024-02-21T10:06:00;11.90;99.90
26081;DHT22;13991;51.174;4.438;2024-02-21T10:08:26;12.00;99.90
26081;DHT22;13991;51.174;4.438;2024-02-21T10:10:52;12.00;99.90
26081;DHT22;13991;51.174;4.438;2024-02-21T10:13:28;12.10;99.90
26081;DHT22;13991;51.174;4.438;2024-02-21T10:18:28;12.30;99.90
26081;DHT22;13991;51.174;4.438;2024-02-21T10:21:04;12.20;99.90
26081;DHT22;13991;51.174;4.438;2024-02-21T10:23:44;12.10;99.90
26081;DHT22;13991;51.174;4.438;2024-02-21T10:26:10;12.10;99.90
26081;DHT22;13991;51.174;4.438;2024-02-21T10:28:37;12.10;99.90
26081;DHT22;13991;51.174;4.438;2024-02-21T10:31:08;12.30;99.90
26081;DHT22;13991;51.174;4.438;2024-02-21T10:33:33;12.30;99.90
26081;DHT22;13991;51.174;4.438;2024-02-21T10:36:10;12.30;99.90
26081;DHT22;13991;51.174;4.438;2024-02-21T10:38:39;12.30;99.90
26081;DHT22;13991;51.174;4.438;2024-02-21T10:41:06;12.40;99.90
26081;DHT22;13991;51.174;4.438;2024-02-21T10:43:40;12.40;99.90
26081;DHT22;13991;51.174;4.438;2024-02-21T10:46:07;12.40;99.90
26081;DHT22;13991;51.174;4.438;2024-02-21T10:48:42;12.40;99.90
26081;DHT22;13991;51.174;4.438;2024-02-21T10:58:53;12.40;99.90
26081;DHT22;13991;51.174;4.438;2024-02-21T11:01:19;12.40;99.90
26081;DHT22;13991;51.174;4.438;2024-02-21T11:03:47;12.40;99.90
26081;DHT22;13991;51.174;4.438;2024-02-21T11:06:15;12.40;99.90
26081;DHT22;13991;51.174;4.438;2024-02-21T11:08:41;12.40;99.90
26081;DHT22;13991;51.174;4.438;2024-02-21T11:11:07;12.40;99.90
26081;DHT22;13991;51.174;4.438;2024-02-21T11:13:35;12.40;99.90
26081;DHT22;13991;51.174;4.438;2024-02-21T11:16:11;12.40;99.90
26081;DHT22;13991;51.174;4.438;2024-02-21T11:18:38;12.40;99.90
26081;DHT22;13991;51.174;4.438;2024-02-21T11:21:04;12.30;99.90
26081;DHT22;13991;51.174;4.438;2024-02-21T11:23:32;12.30;99.90
26081;DHT22;13991;51.174;4.438;2024-02-21T11:26:08;12.40;99.90
26081;DHT22;13991;51.174;4.438;2024-02-21T11:28:34;12.30;99.90
26081;DHT22;13991;51.174;4.438;2024-02-21T11:31:10;12.30;99.90
26081;DHT22;13991;51.174;4.438;2024-02-21T11:33:39;12.30;99.90
26081;DHT22;13991;51.174;4.438;2024-02-21T11:36:05;12.30;99.90
26081;DHT22;13991;51.174;4.438;2024-02-21T11:38:31;12.40;99.90
26081;DHT22;13991;51.174;4.438;2024-02-21T11:40:56;12.40;99.90
26081;DHT22;13991;51.174;4.438;2024-02-21T11:43:23;12.50;99.90
26081;DHT22;13991;51.174;4.438;2024-02-21T11:45:49;12.50;99.90
26081;DHT22;13991;51.174;4.438;2024-02-21T11:48:15;12.50;99.90
26081;DHT22;13991;51.174;4.438;2024-02-21T11:50:41;12.40;99.90
26081;DHT22;13991;51.174;4.438;2024-02-21T11:53:07;12.40;99.90
26081;DHT22;13991;51.174;4.438;2024-02-21T11:55:34;12.30;99.90
26081;DHT22;13991;51.174;4.438;2024-02-21T11:58:00;12.20;99.90
26081;DHT22;13991;51.174;4.438;2024-02-21T12:00:26;12.20;99.90
26081;DHT22;13991;51.174;4.438;2024-02-21T12:02:51;12.30;99.90
26081;DHT22;13991;51.174;4.438;2024-02-21T12:05:19;12.30;99.90
26081;DHT22;13991;51.174;4.438;2024-02-21T12:07:45;12.30;99.90
26081;DHT22;13991;51.174;4.438;2024-02-21T12:10:11;12.40;99.90
26081;DHT22;13991;51.174;4.438;2024-02-21T12:12:38;12.40;99.90
26081;DHT22;13991;51.174;4.438;2024-02-21T12:15:05;12.50;99.90
26081;DHT22;13991;51.174;4.438;2024-02-21T12:17:33;12.50;99.90
26081;DHT22;13991;51.174;4.438;2024-02-21T12:19:59;12.60;99.90
26081;DHT22;13991;51.174;4.438;2024-02-21T12:22:25;12.50;99.90
26081;DHT22;13991;51.174;4.438;2024-02-21T12:24:51;12.40;99.90
26081;DHT22;13991;51.174;4.438;2024-02-21T12:27:17;12.40;99.90
26081;DHT22;13991;51.174;4.438;2024-02-21T12:29:43;12.40;99.90
26081;DHT22;13991;51.174;4.438;2024-02-21T12:32:08;12.50;99.90
26081;DHT22;13991;51.174;4.438;2024-02-21T12:34:34;12.50;99.90
26081;DHT22;13991;51.174;4.438;2024-02-21T12:37:02;12.50;99.90
26081;DHT22;13991;51.174;4.438;2024-02-21T12:39:29;12.50;99.90
26081;DHT22;13991;51.174;4.438;2024-02-21T12:41:54;12.50;99.90
26081;DHT22;13991;51.174;4.438;2024-02-21T12:44:22;12.50;99.90
26081;DHT22;13991;51.174;4.438;2024-02-21T12:46:47;12.50;99.90
26081;DHT22;13991;51.174;4.438;2024-02-21T12:49:18;12.40;99.90
26081;DHT22;13991;51.174;4.438;2024-02-21T12:51:44;12.40;99.90
26081;DHT22;13991;51.174;4.438;2024-02-21T12:54:12;12.40;99.90
26081;DHT22;13991;51.174;4.438;2024-02-21T12:56:38;12.40;99.90
26081;DHT22;13991;51.174;4.438;2024-02-21T12:59:05;12.50;99.90
26081;DHT22;13991;51.174;4.438;2024-02-21T13:01:34;12.50;99.90
26081;DHT22;13991;51.174;4.438;2024-02-21T13:04:01;12.50;99.90
26081;DHT22;13991;51.174;4.438;2024-02-21T13:06:27;12.60;99.90
26081;DHT22;13991;51.174;4.438;2024-02-21T13:08:53;12.60;99.90
26081;DHT22;13991;51.174;4.438;2024-02-21T13:11:19;12.60;99.90
26081;DHT22;13991;51.174;4.438;2024-02-21T13:13:45;12.70;99.90
26081;DHT22;13991;51.174;4.438;2024-02-21T13:16:11;12.60;99.90
26081;DHT22;13991;51.174;4.438;2024-02-21T13:18:37;12.60;99.90
26081;DHT22;13991;51.174;4.438;2024-02-21T13:21:06;12.70;99.90
26081;DHT22;13991;51.174;4.438;2024-02-21T13:23:32;12.60;99.90
26081;DHT22;13991;51.174;4.438;2024-02-21T13:25:58;12.60;99.90
26081;DHT22;13991;51.174;4.438;2024-02-21T13:28:24;12.60;99.90
26081;DHT22;13991;51.174;4.438;2024-02-21T13:30:52;12.70;99.90
26081;DHT22;13991;51.174;4.438;2024-02-21T13:33:18;12.80;99.90
26081;DHT22;13991;51.174;4.438;2024-02-21T13:35:44;12.70;99.90
26081;DHT22;13991;51.174;4.438;2024-02-21T13:38:11;12.70;99.90
26081;DHT22;13991;51.174;4.438;2024-02-21T13:40:37;12.70;99.90
26081;DHT22;13991;51.174;4.438;2024-02-21T13:43:03;12.60;99.90
26081;DHT22;13991;51.174;4.438;2024-02-21T13:45:28;12.60;99.90
26081;DHT22;13991;51.174;4.438;2024-02-21T13:47:54;12.60;99.90
26081;DHT22;13991;51.174;4.438;2024-02-21T13:50:25;12.60;99.90
26081;DHT22;13991;51.174;4.438;2024-02-21T13:52:55;12.60;99.90
26081;DHT22;13991;51.174;4.438;2024-02-21T13:55:23;12.50;99.90
26081;DHT22;13991;51.174;4.438;2024-02-21T13:57:51;12.50;99.90
26081;DHT22;13991;51.174;4.438;2024-02-21T14:00:18;12.60;99.90
26081;DHT22;13991;51.174;4.438;2024-02-21T14:02:46;12.40;99.90
26081;DHT22;13991;51.174;4.438;2024-02-21T14:05:11;12.50;99.90
26081;DHT22;13991;51.174;4.438;2024-02-21T14:07:38;12.40;99.90
26081;DHT22;13991;51.174;4.438;2024-02-21T14:10:04;12.40;99.90
26081;DHT22;13991;51.174;4.438;2024-02-21T14:12:31;12.30;99.90
26081;DHT22;13991;51.174;4.438;2024-02-21T14:14:57;12.10;99.90
26081;DHT22;13991;51.174;4.438;2024-02-21T14:17:24;12.00;99.90
26081;DHT22;13991;51.174;4.438;2024-02-21T14:19:50;12.00;99.90
26081;DHT22;13991;51.174;4.438;2024-02-21T14:22:17;11.90;99.90
26081;DHT22;13991;51.174;4.438;2024-02-21T14:24:42;11.90;99.90
26081;DHT22;13991;51.174;4.438;2024-02-21T14:27:11;11.80;99.90
26081;DHT22;13991;51.174;4.438;2024-02-21T14:29:38;11.70;99.90
26081;DHT22;13991;51.174;4.438;2024-02-21T14:32:05;11.60;99.90
26081;DHT22;13991;51.174;4.438;2024-02-21T14:34:31;11.60;99.90
26081;DHT22;13991;51.174;4.438;2024-02-21T14:36:58;11.60;99.90
26081;DHT22;13991;51.174;4.438;2024-02-21T14:39:25;11.50;99.90
26081;DHT22;13991;51.174;4.438;2024-02-21T14:41:50;11.60;99.90
26081;DHT22;13991;51.174;4.438;2024-02-21T14:44:16;11.60;99.90
26081;DHT22;13991;51.174;4.438;2024-02-21T14:46:42;11.60;99.90
26081;DHT22;13991;51.174;4.438;2024-02-21T14:49:07;11.60;99.90
26081;DHT22;13991;51.174;4.438;2024-02-21T14:51:33;11.50;99.90
26081;DHT22;13991;51.174;4.438;2024-02-21T14:53:59;11.50;99.90
26081;DHT22;13991;51.174;4.438;2024-02-21T14:56:25;11.40;99.90
26081;DHT22;13991;51.174;4.438;2024-02-21T14:58:51;11.40;99.90
26081;DHT22;13991;51.174;4.438;2024-02-21T15:01:17;11.50;99.90
26081;DHT22;13991;51.174;4.438;2024-02-21T15:03:43;11.50;99.90
26081;DHT22;13991;51.174;4.438;2024-02-21T15:06:09;11.50;99.90
26081;DHT22;13991;51.174;4.438;2024-02-21T15:08:34;11.40;99.90
26081;DHT22;13991;51.174;4.438;2024-02-21T15:11:01;11.30;99.90
26081;DHT22;13991;51.174;4.438;2024-02-21T15:13:29;11.30;99.90
26081;DHT22;13991;51.174;4.438;2024-02-21T15:15:56;11.30;99.90
26081;DHT22;13991;51.174;4.438;2024-02-21T15:18:21;11.30;99.90
26081;DHT22;13991;51.174;4.438;2024-02-21T15:20:47;11.30;99.90
26081;DHT22;13991;51.174;4.438;2024-02-21T15:23:13;11.20;99.90
26081;DHT22;13991;51.174;4.438;2024-02-21T15:25:38;11.20;99.90
26081;DHT22;13991;51.174;4.438;2024-02-21T15:28:04;11.20;99.90
26081;DHT22;13991;51.174;4.438;2024-02-21T15:30:30;11.30;99.90
26081;DHT22;13991;51.174;4.438;2024-02-21T15:32:57;11.20;99.90
26081;DHT22;13991;51.174;4.438;2024-02-21T15:35:28;11.20;99.90
26081;DHT22;13991;51.174;4.438;2024-02-21T15:37:54;11.30;99.90
26081;DHT22;13991;51.174;4.438;2024-02-21T15:40:21;11.10;99.90
26081;DHT22;13991;51.174;4.438;2024-02-21T15:42:47;11.00;99.90